createdAt,value
2019-03-19T00:01:47.281Z,100.00
2019-03-19T00:04:38.298Z,100.00
2019-03-19T00:07:15.483Z,100.00
2019-03-19T00:09:45.744Z,100.00
2019-03-19T00:12:18.465Z,100.00
2019-03-19T00:14:50.300Z,100.00
2019-03-19T00:17:21.102Z,100.00
2019-03-19T00:19:51.427Z,100.00
2019-03-19T00:25:03.820Z,100.00
2019-03-19T00:27:36.174Z,100.00
2019-03-19T00:33:10.015Z,100.00
2019-03-19T00:35:46.464Z,100.00
2019-03-19T00:38:17.391Z,100.00
2019-03-19T00:41:06.621Z,100.00
2019-03-19T00:46:19.639Z,100.00
2019-03-19T00:51:35.095Z,100.00
2019-03-19T00:56:47.808Z,100.00
2019-03-19T00:59:20.015Z,100.00
2019-03-19T01:01:50.235Z,100.00
2019-03-19T01:04:39.622Z,100.00
2019-03-19T01:07:10.286Z,100.00
2019-03-19T01:09:46.760Z,100.00
2019-03-19T01:12:18.618Z,100.00
2019-03-19T01:14:48.846Z,100.00
2019-03-19T01:17:19.143Z,100.00
2019-03-19T01:19:49.309Z,100.00
2019-03-19T01:22:20.146Z,100.00
2019-03-19T01:24:51.416Z,100.00
2019-03-19T01:27:22.102Z,100.00
2019-03-19T01:30:11.722Z,100.00
2019-03-19T01:32:42.342Z,100.00
2019-03-19T01:35:12.587Z,100.00
2019-03-19T01:37:42.850Z,100.00
2019-03-19T01:40:13.320Z,100.00
2019-03-19T01:42:43.903Z,100.00
2019-03-19T01:45:14.346Z,100.00
2019-03-19T01:47:44.710Z,100.00
2019-03-19T01:50:15.755Z,100.00
2019-03-19T01:52:48.356Z,100.00
2019-03-19T01:55:18.665Z,100.00
2019-03-19T01:57:48.883Z,100.00
2019-03-19T02:00:19.204Z,100.00
2019-03-19T02:02:49.733Z,100.00
2019-03-19T02:05:21.288Z,100.00
2019-03-19T02:07:51.675Z,100.00
2019-03-19T02:10:22.047Z,100.00
2019-03-19T02:12:53.030Z,100.00
2019-03-19T02:15:23.515Z,100.00
2019-03-19T02:17:53.795Z,100.00
2019-03-19T02:20:24.356Z,100.00
2019-03-19T02:22:54.555Z,100.00
2019-03-19T02:25:26.800Z,100.00
2019-03-19T02:27:57.410Z,100.00
2019-03-19T02:30:28.151Z,100.00
2019-03-19T02:32:59.837Z,100.00
2019-03-19T02:35:30.074Z,100.00
2019-03-19T02:38:00.776Z,100.00
2019-03-19T02:40:32.582Z,100.00
2019-03-19T02:43:04.442Z,100.00
2019-03-19T02:45:34.807Z,100.00
2019-03-19T02:48:06.796Z,100.00
2019-03-19T02:50:37.035Z,100.00
2019-03-19T02:53:09.022Z,100.00
2019-03-19T02:55:40.931Z,100.00
2019-03-19T02:58:12.930Z,100.00
2019-03-19T03:00:43.160Z,100.00
2019-03-19T03:03:13.349Z,100.00
2019-03-19T03:05:43.574Z,100.00
2019-03-19T03:08:14.146Z,100.00
2019-03-19T03:13:31.892Z,100.00
2019-03-19T03:19:26.469Z,100.00
2019-03-19T03:21:56.929Z,100.00
2019-03-19T03:24:46.484Z,100.00
2019-03-19T03:27:16.752Z,100.00
2019-03-19T03:29:46.943Z,100.00
2019-03-19T03:32:17.535Z,100.00
2019-03-19T03:34:59.601Z,100.00
2019-03-19T03:37:42.490Z,100.00
2019-03-19T03:40:13.482Z,100.00
2019-03-19T03:45:46.445Z,100.00
2019-03-19T03:48:16.704Z,100.00
2019-03-19T03:50:46.902Z,100.00
2019-03-19T03:53:17.116Z,100.00
2019-03-19T03:58:28.359Z,100.00
2019-03-19T04:01:17.607Z,100.00
2019-03-19T04:03:49.807Z,100.00
2019-03-19T04:09:39.666Z,100.00
2019-03-19T04:12:21.641Z,100.00
2019-03-19T04:15:10.993Z,100.00
2019-03-19T04:18:01.895Z,100.00
2019-03-19T04:20:32.118Z,100.00
2019-03-19T04:23:04.849Z,100.00
2019-03-19T04:25:47.202Z,100.00
2019-03-19T04:28:17.532Z,100.00
2019-03-19T04:30:47.746Z,100.00
2019-03-19T04:33:18.051Z,100.00
2019-03-19T04:35:48.364Z,100.00
2019-03-19T04:41:02.122Z,100.00
2019-03-19T04:43:32.685Z,100.00
2019-03-19T04:46:22.108Z,100.00
2019-03-19T04:49:12.931Z,100.00
2019-03-19T04:51:43.488Z,100.00
2019-03-19T04:54:32.824Z,100.00
2019-03-19T04:57:04.265Z,100.00
2019-03-19T04:59:34.519Z,100.00
2019-03-19T05:02:05.131Z,100.00
2019-03-19T05:04:35.394Z,100.00
2019-03-19T05:07:05.594Z,100.00
2019-03-19T05:09:35.814Z,100.00
2019-03-19T05:14:47.998Z,100.00
2019-03-19T05:17:19.856Z,100.00
2019-03-19T05:20:09.435Z,100.00
2019-03-19T05:22:40.243Z,100.00
2019-03-19T05:25:12.123Z,100.00
2019-03-19T05:27:43.958Z,100.00
2019-03-19T05:30:14.331Z,100.00
2019-03-19T05:33:03.914Z,100.00
2019-03-19T05:35:46.147Z,100.00
2019-03-19T05:38:16.647Z,100.00
2019-03-19T05:40:47.190Z,100.00
2019-03-19T05:43:36.500Z,100.00
2019-03-19T05:46:07.212Z,100.00
2019-03-19T05:48:37.422Z,100.00
2019-03-19T05:51:08.496Z,100.00
2019-03-19T05:53:39.189Z,100.00
2019-03-19T05:56:11.090Z,100.00
2019-03-19T05:59:00.643Z,100.00
2019-03-19T06:01:30.946Z,100.00
2019-03-19T06:04:13.432Z,100.00
2019-03-19T06:06:43.702Z,100.00
2019-03-19T06:09:14.471Z,100.00
2019-03-19T06:11:45.223Z,100.00
2019-03-19T06:14:16.084Z,100.00
2019-03-19T06:16:46.344Z,100.00
2019-03-19T06:19:17.532Z,100.00
2019-03-19T06:21:48.879Z,100.00
2019-03-19T06:24:19.474Z,100.00
2019-03-19T06:26:49.778Z,100.00
2019-03-19T06:29:20.128Z,100.00
2019-03-19T06:31:50.564Z,100.00
2019-03-19T06:34:21.772Z,100.00
2019-03-19T06:36:52.643Z,100.00
2019-03-19T06:39:23.234Z,100.00
2019-03-19T06:42:12.976Z,100.00
2019-03-19T06:44:54.853Z,100.00
2019-03-19T06:50:08.466Z,100.00
2019-03-19T06:55:41.106Z,100.00
2019-03-19T06:58:11.592Z,100.00
2019-03-19T07:00:52.277Z,100.00
2019-03-19T07:03:24.471Z,100.00
2019-03-19T07:05:54.667Z,100.00
2019-03-19T07:08:43.974Z,100.00
2019-03-19T07:11:14.311Z,100.00
2019-03-19T07:13:44.949Z,100.00
2019-03-19T07:16:15.514Z,100.00
2019-03-19T07:18:46.150Z,100.00
2019-03-19T07:21:35.550Z,100.00
2019-03-19T07:24:06.238Z,100.00
2019-03-19T07:26:55.621Z,100.00
2019-03-19T07:29:27.674Z,100.00
2019-03-19T07:34:39.516Z,100.00
2019-03-19T07:37:09.735Z,100.00
2019-03-19T07:39:40.318Z,100.00
2019-03-19T07:42:29.608Z,100.00
2019-03-19T07:44:59.853Z,100.00
2019-03-19T07:50:19.319Z,100.00
2019-03-19T07:52:49.867Z,100.00
2019-03-19T07:55:20.363Z,100.00
2019-03-19T07:57:50.984Z,100.00
2019-03-19T08:00:23.539Z,100.00
2019-03-19T08:03:15.629Z,100.00
2019-03-19T08:05:37.996Z,100.00
2019-03-19T08:08:27.363Z,100.00
2019-03-19T08:10:57.552Z,100.00
2019-03-19T08:13:28.122Z,100.00
2019-03-19T08:15:59.549Z,100.00
2019-03-19T08:18:29.792Z,100.00
2019-03-19T08:23:42.616Z,100.00
2019-03-19T08:26:12.840Z,100.00
2019-03-19T08:28:43.082Z,100.00
2019-03-19T08:31:13.446Z,100.00
2019-03-19T08:33:43.632Z,100.00
2019-03-19T08:36:13.962Z,100.00
2019-03-19T08:38:44.381Z,100.00
2019-03-19T08:41:14.716Z,100.00
2019-03-19T08:44:04.082Z,100.00
2019-03-19T08:46:34.566Z,100.00
2019-03-19T08:49:04.927Z,100.00
2019-03-19T08:51:35.205Z,100.00
2019-03-19T08:54:05.402Z,100.00
2019-03-19T08:56:35.700Z,100.00
2019-03-19T08:59:06.610Z,100.00
2019-03-19T09:01:36.968Z,100.00
2019-03-19T09:04:09.283Z,100.00
2019-03-19T09:06:39.933Z,100.00
2019-03-19T09:09:31.144Z,100.00
2019-03-19T09:12:01.408Z,100.00
2019-03-19T09:14:31.900Z,100.00
2019-03-19T09:17:02.122Z,100.00
2019-03-19T09:19:32.699Z,100.00
2019-03-19T09:22:03.939Z,99.14
2019-03-19T09:24:34.625Z,95.53
2019-03-19T09:27:04.922Z,92.19
2019-03-19T09:29:35.136Z,88.98
2019-03-19T09:32:05.437Z,86.44
2019-03-19T09:34:35.761Z,83.26
2019-03-19T09:37:05.974Z,78.80
2019-03-19T09:39:55.347Z,67.59
2019-03-19T09:42:25.589Z,67.59
2019-03-19T09:47:44.367Z,90.53
2019-03-19T09:50:15.367Z,89.38
2019-03-19T09:52:45.675Z,94.85
2019-03-19T09:55:16.215Z,95.59
2019-03-19T09:57:46.838Z,96.41
2019-03-19T10:00:18.128Z,99.17
2019-03-19T10:02:48.817Z,97.51
2019-03-19T10:05:19.164Z,93.59
2019-03-19T10:07:49.645Z,86.07
2019-03-19T10:10:20.779Z,77.80
2019-03-19T10:13:11.519Z,73.09
2019-03-19T10:15:41.892Z,67.23
2019-03-19T10:18:12.170Z,61.83
2019-03-19T10:20:42.877Z,64.56
2019-03-19T10:23:13.551Z,67.81
2019-03-19T10:25:43.860Z,68.85
2019-03-19T10:28:33.230Z,60.69
2019-03-19T10:31:03.537Z,60.69
2019-03-19T10:33:52.884Z,59.84
2019-03-19T10:36:34.661Z,59.84
2019-03-19T10:39:45.099Z,53.02
2019-03-19T10:42:15.360Z,51.77
2019-03-19T10:44:46.200Z,48.27
2019-03-19T10:47:16.426Z,46.16
2019-03-19T10:49:46.626Z,43.40
2019-03-19T10:52:18.489Z,44.01
2019-03-19T10:54:49.206Z,43.94
2019-03-19T10:57:19.471Z,43.04
2019-03-19T11:00:30.842Z,45.02
2019-03-19T11:03:01.079Z,47.12
2019-03-19T11:08:20.862Z,48.23
2019-03-19T11:10:51.188Z,45.50
2019-03-19T11:13:22.424Z,45.07
2019-03-19T11:15:52.659Z,47.36
2019-03-19T11:18:23.173Z,53.19
2019-03-19T11:20:53.771Z,57.50
2019-03-19T11:23:44.858Z,58.31
2019-03-19T11:26:15.291Z,53.47
2019-03-19T11:28:46.089Z,54.39
2019-03-19T11:31:37.119Z,64.48
2019-03-19T11:34:07.420Z,70.48
2019-03-19T11:36:37.675Z,64.63
2019-03-19T11:39:10.624Z,70.53
2019-03-19T11:41:41.014Z,66.88
2019-03-19T11:44:22.910Z,63.68
2019-03-19T11:46:53.701Z,56.84
2019-03-19T11:49:34.558Z,56.84
2019-03-19T11:52:04.927Z,55.13
2019-03-19T11:54:35.255Z,56.27
2019-03-19T11:57:05.844Z,64.30
2019-03-19T11:59:36.029Z,61.83
2019-03-19T12:02:06.286Z,52.76
2019-03-19T12:04:36.861Z,47.68
2019-03-19T12:07:07.068Z,47.87
2019-03-19T12:09:56.455Z,58.54
2019-03-19T12:12:26.998Z,58.54
2019-03-19T12:15:16.705Z,57.19
2019-03-19T12:17:48.889Z,57.19
2019-03-19T12:20:20.758Z,54.53
2019-03-19T12:23:00.657Z,51.36
2019-03-19T12:25:31.573Z,48.25
2019-03-19T12:28:01.845Z,48.17
2019-03-19T12:30:32.661Z,48.33
2019-03-19T12:33:03.467Z,54.57
2019-03-19T12:38:35.959Z,66.65
2019-03-19T12:41:17.965Z,70.71
2019-03-19T12:43:59.973Z,66.73
2019-03-19T12:46:42.506Z,54.22
2019-03-19T12:49:31.911Z,49.09
2019-03-19T12:52:02.353Z,45.41
2019-03-19T12:54:32.684Z,48.38
2019-03-19T12:57:03.397Z,51.32
2019-03-19T12:59:33.782Z,53.09
2019-03-19T13:02:16.100Z,54.12
2019-03-19T13:04:46.345Z,54.58
2019-03-19T13:07:16.574Z,54.92
2019-03-19T13:09:46.919Z,54.92
2019-03-19T13:12:28.971Z,52.57
2019-03-19T13:15:00.045Z,52.57
2019-03-19T13:17:30.582Z,52.07
2019-03-19T13:20:01.301Z,50.85
2019-03-19T13:22:31.775Z,51.20
2019-03-19T13:25:02.061Z,84.47
2019-03-19T13:27:33.038Z,98.17
2019-03-19T13:30:03.461Z,100.00
2019-03-19T13:32:58.961Z,94.29
2019-03-19T13:35:29.267Z,94.29
2019-03-19T13:37:59.867Z,98.72
2019-03-19T13:40:30.710Z,100.00
2019-03-19T13:43:00.994Z,100.00
2019-03-19T13:45:32.172Z,100.00
2019-03-19T13:48:02.444Z,100.00
2019-03-19T13:50:33.133Z,100.00
2019-03-19T13:53:04.400Z,100.00
2019-03-19T13:55:34.639Z,100.00
2019-03-19T13:58:05.347Z,100.00
2019-03-19T14:00:35.527Z,100.00
2019-03-19T14:03:06.733Z,100.00
2019-03-19T14:05:37.482Z,100.00
2019-03-19T14:08:19.721Z,100.00
2019-03-19T14:10:50.090Z,100.00
2019-03-19T14:13:20.392Z,100.00
2019-03-19T14:15:50.866Z,100.00
2019-03-19T14:18:22.213Z,100.00
2019-03-19T14:20:52.489Z,100.00
2019-03-19T14:23:22.764Z,100.00
2019-03-19T14:25:53.339Z,100.00
2019-03-19T14:28:23.586Z,100.00
2019-03-19T14:30:54.404Z,100.00
2019-03-19T14:33:24.674Z,100.00
2019-03-19T14:35:54.885Z,100.00
2019-03-19T14:38:25.635Z,100.00
2019-03-19T14:40:55.883Z,100.00
2019-03-19T14:43:26.489Z,100.00
2019-03-19T14:45:56.698Z,100.00
2019-03-19T14:48:27.227Z,100.00
2019-03-19T15:17:41.021Z,100.00
2019-03-19T15:20:16.895Z,100.00
2019-03-19T15:22:48.212Z,100.00
2019-03-19T15:25:18.451Z,100.00
2019-03-19T15:27:48.707Z,100.00
2019-03-19T15:30:19.270Z,100.00
2019-03-19T15:32:49.726Z,100.00
2019-03-19T15:35:20.357Z,100.00
2019-03-19T15:37:50.591Z,100.00
2019-03-19T15:40:21.815Z,100.00
2019-03-19T15:42:52.039Z,100.00
2019-03-19T15:45:23.474Z,100.00
2019-03-19T15:47:54.461Z,100.00
2019-03-19T15:50:25.305Z,100.00
2019-03-19T15:52:55.893Z,100.00
2019-03-19T15:55:26.755Z,89.75
2019-03-19T15:57:57.029Z,87.56
2019-03-19T16:00:27.335Z,85.98
2019-03-19T16:02:58.125Z,86.20
2019-03-19T16:05:29.259Z,86.99
2019-03-19T16:07:59.460Z,87.40
2019-03-19T16:10:30.444Z,87.78
2019-03-19T16:13:00.725Z,88.51
2019-03-19T16:15:30.987Z,89.34
2019-03-19T16:18:01.282Z,90.33
2019-03-19T16:20:31.500Z,91.64
2019-03-19T16:23:02.007Z,93.08
2019-03-19T16:25:32.253Z,94.93
2019-03-19T16:28:02.487Z,94.36
2019-03-19T16:30:33.119Z,94.43
2019-03-19T16:33:03.554Z,93.80
2019-03-19T16:35:34.196Z,95.50
2019-03-19T16:38:04.940Z,96.46
2019-03-19T16:40:35.672Z,98.12
2019-03-19T16:43:06.000Z,98.70
2019-03-19T16:45:37.753Z,99.22
2019-03-19T16:48:08.005Z,99.53
2019-03-19T16:50:38.650Z,99.58
2019-03-19T16:53:09.560Z,99.84
2019-03-19T16:55:41.769Z,100.00
2019-03-19T16:58:12.303Z,100.00
2019-03-19T17:00:42.643Z,100.00
2019-03-19T17:03:12.826Z,100.00
2019-03-19T17:05:43.261Z,100.00
2019-03-19T17:08:14.200Z,100.00
2019-03-19T17:10:45.240Z,100.00
2019-03-19T17:13:15.462Z,100.00
2019-03-19T17:15:46.003Z,100.00
2019-03-19T17:18:16.285Z,100.00
2019-03-19T17:20:47.043Z,100.00
2019-03-19T17:23:17.270Z,100.00
2019-03-19T17:25:47.877Z,100.00
2019-03-19T17:28:22.489Z,100.00
2019-03-19T17:30:50.612Z,100.00
2019-03-19T17:33:20.941Z,100.00
2019-03-19T17:35:51.652Z,100.00
2019-03-19T17:38:21.896Z,100.00
2019-03-19T17:40:52.301Z,100.00
2019-03-19T17:43:23.655Z,100.00
2019-03-19T17:45:54.336Z,100.00
2019-03-19T17:48:24.953Z,100.00
2019-03-19T17:50:56.389Z,100.00
2019-03-19T17:53:26.782Z,100.00
2019-03-19T17:55:58.371Z,100.00
2019-03-19T17:58:29.014Z,100.00
2019-03-19T18:00:59.395Z,100.00
2019-03-19T18:03:32.574Z,100.00
2019-03-19T18:06:03.392Z,100.00
2019-03-19T18:08:34.862Z,100.00
2019-03-19T18:11:05.616Z,100.00
2019-03-19T18:13:36.878Z,100.00
2019-03-19T18:16:07.359Z,100.00
2019-03-19T18:18:38.011Z,100.00
2019-03-19T18:21:09.089Z,100.00
2019-03-19T18:23:39.926Z,100.00
2019-03-19T18:26:10.992Z,100.00
2019-03-19T18:28:41.828Z,100.00
2019-03-19T18:31:12.436Z,100.00
2019-03-19T18:33:42.791Z,100.00
2019-03-19T18:36:13.035Z,100.00
2019-03-19T18:38:44.072Z,100.00
2019-03-19T18:41:15.348Z,100.00
2019-03-19T18:43:46.289Z,100.00
2019-03-19T18:46:17.529Z,100.00
2019-03-19T18:48:49.038Z,100.00
2019-03-19T18:51:19.623Z,100.00
2019-03-19T18:53:50.142Z,100.00
2019-03-19T18:56:21.190Z,100.00
2019-03-19T18:58:51.527Z,100.00
2019-03-19T19:01:22.330Z,100.00
2019-03-19T19:03:52.929Z,100.00
2019-03-19T19:06:23.363Z,100.00
2019-03-19T19:08:54.720Z,100.00
2019-03-19T19:11:25.629Z,100.00
2019-03-19T19:13:56.258Z,100.00
2019-03-19T19:16:27.532Z,100.00
2019-03-19T19:18:58.348Z,100.00
2019-03-19T19:21:28.843Z,100.00
2019-03-19T19:23:59.153Z,100.00
2019-03-19T19:26:29.992Z,100.00
2019-03-19T19:29:00.870Z,100.00
2019-03-19T19:31:31.294Z,100.00
2019-03-19T19:34:02.529Z,100.00
2019-03-19T19:36:33.020Z,100.00
2019-03-19T19:39:05.278Z,100.00
2019-03-19T19:41:35.715Z,100.00
2019-03-19T19:44:06.816Z,100.00
2019-03-19T19:46:37.148Z,100.00
2019-03-19T19:49:07.730Z,100.00
2019-03-19T19:51:38.140Z,100.00
2019-03-19T19:54:08.796Z,100.00
2019-03-19T19:56:39.686Z,100.00
2019-03-19T19:59:12.390Z,100.00
2019-03-19T20:01:43.211Z,100.00
2019-03-19T20:04:13.880Z,100.00
2019-03-19T20:06:44.075Z,100.00
2019-03-19T20:09:14.519Z,100.00
2019-03-19T20:11:45.234Z,100.00
2019-03-19T20:14:15.889Z,100.00
2019-03-19T20:16:47.121Z,100.00
2019-03-19T20:19:17.562Z,100.00
2019-03-19T20:21:48.685Z,100.00
2019-03-19T20:24:19.429Z,100.00
2019-03-19T20:26:50.454Z,100.00
2019-03-19T20:29:20.897Z,100.00
2019-03-19T20:31:51.469Z,100.00
2019-03-19T20:34:22.310Z,100.00
2019-03-19T20:36:52.782Z,100.00
2019-03-19T20:39:23.929Z,100.00
2019-03-19T20:41:54.335Z,100.00
2019-03-19T20:44:25.819Z,100.00
2019-03-19T20:46:56.061Z,100.00
2019-03-19T20:49:27.205Z,100.00
2019-03-19T20:51:57.977Z,100.00
2019-03-19T20:54:28.539Z,100.00
2019-03-19T20:56:59.202Z,100.00
2019-03-19T20:59:29.538Z,100.00
2019-03-19T21:02:00.154Z,100.00
2019-03-19T21:04:31.710Z,100.00
2019-03-19T21:07:02.107Z,100.00
2019-03-19T21:09:33.405Z,100.00
2019-03-19T21:12:03.830Z,100.00
2019-03-19T21:14:34.125Z,100.00
2019-03-19T21:17:04.987Z,100.00
2019-03-19T21:19:35.527Z,100.00
2019-03-19T21:22:08.546Z,100.00
2019-03-19T21:24:39.453Z,100.00
2019-03-19T21:27:10.051Z,100.00
2019-03-19T21:29:40.844Z,100.00
2019-03-19T21:32:11.226Z,100.00
2019-03-19T21:34:41.460Z,100.00
2019-03-19T21:37:12.234Z,100.00
2019-03-19T21:39:42.484Z,100.00
2019-03-19T21:42:12.884Z,100.00
2019-03-19T21:44:43.129Z,100.00
2019-03-19T21:47:13.504Z,100.00
2019-03-19T21:49:45.245Z,100.00
2019-03-19T21:52:16.386Z,100.00
2019-03-19T21:54:46.633Z,100.00
2019-03-19T21:57:17.297Z,100.00
2019-03-19T21:59:47.629Z,100.00
2019-03-19T22:02:18.421Z,100.00
2019-03-19T22:04:48.924Z,100.00
2019-03-19T22:07:19.571Z,100.00
2019-03-19T22:09:51.178Z,100.00
2019-03-19T22:12:21.842Z,100.00
2019-03-19T22:14:52.457Z,100.00
2019-03-19T22:17:22.726Z,100.00
2019-03-19T22:19:53.085Z,100.00
2019-03-19T22:22:23.660Z,100.00
2019-03-19T22:24:54.394Z,100.00
2019-03-19T22:27:25.042Z,100.00
2019-03-19T22:29:55.693Z,100.00
2019-03-19T22:32:26.371Z,100.00
2019-03-19T22:34:57.106Z,100.00
2019-03-19T22:37:28.139Z,100.00
2019-03-19T22:39:58.651Z,100.00
2019-03-19T22:42:28.957Z,100.00
2019-03-19T22:44:59.465Z,100.00
2019-03-19T22:47:30.181Z,100.00
2019-03-19T22:50:01.152Z,100.00
2019-03-19T22:52:31.861Z,100.00
2019-03-19T22:55:02.597Z,100.00
2019-03-19T22:57:33.043Z,100.00
2019-03-19T23:00:05.708Z,100.00
2019-03-19T23:02:36.181Z,100.00
2019-03-19T23:05:08.077Z,100.00
2019-03-19T23:07:38.426Z,100.00
2019-03-19T23:10:08.683Z,100.00
2019-03-19T23:12:42.400Z,100.00
2019-03-19T23:15:14.748Z,100.00
2019-03-19T23:17:45.968Z,100.00
2019-03-19T23:20:16.311Z,100.00
2019-03-19T23:22:46.636Z,100.00
2019-03-19T23:25:16.996Z,100.00
2019-03-19T23:27:47.250Z,100.00
2019-03-19T23:30:17.483Z,100.00
2019-03-19T23:32:48.167Z,100.00
2019-03-19T23:35:19.180Z,100.00
2019-03-19T23:37:50.033Z,100.00
2019-03-19T23:40:20.322Z,100.00
2019-03-19T23:42:50.855Z,100.00
2019-03-19T23:45:21.088Z,100.00
2019-03-19T23:47:51.592Z,100.00
2019-03-19T23:50:22.042Z,100.00
2019-03-19T23:52:52.339Z,100.00
2019-03-19T23:55:22.888Z,100.00
2019-03-19T23:57:53.113Z,100.00
